Time;durP1;ratioP1;P1;durP2;ratioP2;P2;SDS_P1;SDS_P2;PMS_P1;PMS_P2;Temp;Humidity;BMP_temperature;BMP_pressure;BME280_temperature;BME280_humidity;BME280_pressure;Samples;Min_cycle;Max_cycle;Signal;HPM_P1;HPM_P2
2022/05/06 00:01:46;;;;;;;8.68;6.45;;;9.30;99.90;;;;;;5004940;28;20042;-65
2022/05/06 00:04:14;;;;;;;13.40;9.07;;;9.30;99.90;;;;;;4987190;28;20033;-65
2022/05/06 00:06:39;;;;;;;12.00;9.82;;;9.30;99.90;;;;;;5002459;28;20036;-65
2022/05/06 00:09:05;;;;;;;13.40;8.88;;;9.30;99.90;;;;;;5003740;28;20049;-65
2022/05/06 00:11:31;;;;;;;11.73;10.07;;;9.20;99.90;;;;;;4984490;28;20049;-65
2022/05/06 00:13:57;;;;;;;13.20;10.35;;;9.20;99.90;;;;;;5004409;28;20038;-65
2022/05/06 00:16:25;;;;;;;14.43;11.60;;;9.20;99.90;;;;;;5004160;28;20030;-65
2022/05/06 00:18:51;;;;;;;15.32;9.68;;;9.10;99.90;;;;;;4986802;28;20484;-65
2022/05/06 00:21:17;;;;;;;10.65;8.88;;;9.10;99.90;;;;;;4986869;28;20133;-65
2022/05/06 00:23:43;;;;;;;13.65;10.75;;;9.10;99.90;;;;;;4986523;28;20128;-65
2022/05/06 00:26:09;;;;;;;16.50;7.97;;;9.00;99.90;;;;;;4983034;28;20108;-65
2022/05/06 00:28:35;;;;;;;12.43;9.82;;;9.00;99.90;;;;;;5002083;28;20433;-65
2022/05/06 00:31:02;;;;;;;13.07;9.98;;;9.00;99.90;;;;;;5003616;28;20489;-65
2022/05/06 00:33:28;;;;;;;11.30;7.10;;;9.00;99.90;;;;;;4987195;28;20042;-65
2022/05/06 00:35:54;;;;;;;8.30;7.15;;;9.00;99.90;;;;;;5003597;28;20080;-65
2022/05/06 00:38:21;;;;;;;14.32;11.27;;;8.90;99.90;;;;;;4991092;28;20041;-65
2022/05/06 00:40:46;;;;;;;10.82;8.02;;;8.90;99.90;;;;;;4986936;28;20560;-65
2022/05/06 00:43:12;;;;;;;7.90;7.10;;;8.90;99.90;;;;;;4986035;28;20049;-65
2022/05/06 00:45:51;;;;;;;12.18;7.03;;;8.90;99.90;;;;;;5003708;28;20481;-65
2022/05/06 00:48:18;;;;;;;12.05;7.13;;;8.80;99.90;;;;;;5003252;28;20038;-65
2022/05/06 00:50:44;;;;;;;19.17;11.40;;;8.70;99.90;;;;;;5002639;28;20504;-65
2022/05/06 00:53:11;;;;;;;19.88;11.07;;;8.70;99.90;;;;;;5002040;28;20046;-65
2022/05/06 00:55:37;;;;;;;18.38;11.13;;;8.80;99.90;;;;;;4986588;28;20052;-65
2022/05/06 00:58:06;;;;;;;20.25;10.93;;;8.70;99.90;;;;;;5002146;28;20396;-65
2022/05/06 01:00:32;;;;;;;16.95;10.77;;;8.70;99.90;;;;;;5001568;28;20061;-65
2022/05/06 01:02:58;;;;;;;12.45;8.23;;;8.70;99.90;;;;;;4999317;28;20038;-65
2022/05/06 01:05:24;;;;;;;9.98;8.20;;;8.60;99.90;;;;;;4985346;28;20046;-65
2022/05/06 01:07:51;;;;;;;11.52;7.68;;;8.70;99.90;;;;;;5004223;28;20033;-65
2022/05/06 01:10:18;;;;;;;8.27;6.97;;;8.60;99.90;;;;;;4986171;28;20100;-65
2022/05/06 01:12:44;;;;;;;6.38;4.47;;;8.50;99.90;;;;;;5000780;28;20046;-65
2022/05/06 01:15:25;;;;;;;8.80;5.53;;;8.50;99.90;;;;;;4983929;28;20050;-65
2022/05/06 01:17:52;;;;;;;10.25;6.32;;;8.50;99.90;;;;;;4982258;28;20069;-65
2022/05/06 01:20:20;;;;;;;9.70;6.82;;;8.50;99.90;;;;;;4985559;28;20054;-65
2022/05/06 01:22:48;;;;;;;11.80;9.05;;;8.40;99.90;;;;;;4984075;28;20099;-65
2022/05/06 01:25:15;;;;;;;18.75;11.73;;;8.40;99.90;;;;;;4986091;28;20048;-65
2022/05/06 01:27:46;;;;;;;27.77;14.45;;;8.40;99.90;;;;;;4983297;28;20049;-65
2022/05/06 01:30:38;;;;;;;17.15;13.25;;;8.40;99.90;;;;;;4966817;28;20038;-65
2022/05/06 01:33:11;;;;;;;18.52;12.38;;;8.40;99.90;;;;;;4971701;28;20050;-64
2022/05/06 01:35:52;;;;;;;15.85;12.30;;;8.40;99.90;;;;;;4984393;28;20128;-65
2022/05/06 01:38:24;;;;;;;21.50;12.63;;;8.30;99.90;;;;;;4989294;28;20057;-64
2022/05/06 01:40:58;;;;;;;17.88;11.05;;;8.30;99.90;;;;;;4987311;28;20064;-65
2022/05/06 01:43:27;;;;;;;20.02;13.93;;;8.30;99.90;;;;;;4981846;28;20038;-65
2022/05/06 01:45:55;;;;;;;18.00;12.82;;;8.30;99.90;;;;;;4982964;28;20065;-65
2022/05/06 01:48:22;;;;;;;21.27;15.75;;;8.20;99.90;;;;;;4985073;28;20858;-65
2022/05/06 01:50:51;;;;;;;23.63;14.90;;;8.30;99.90;;;;;;4985447;28;20554;-65
2022/05/06 01:53:17;;;;;;;25.38;16.27;;;8.20;99.90;;;;;;5003623;28;20053;-65
2022/05/06 01:55:44;;;;;;;19.08;13.68;;;8.20;99.90;;;;;;5001357;28;20049;-65
2022/05/06 01:58:11;;;;;;;21.95;14.50;;;8.20;99.90;;;;;;4986756;28;20684;-65
2022/05/06 02:00:36;;;;;;;20.85;16.00;;;8.20;99.90;;;;;;4984729;28;20489;-64
2022/05/06 02:03:03;;;;;;;18.75;12.85;;;8.20;99.90;;;;;;5002124;28;20084;-65
2022/05/06 02:05:29;;;;;;;17.92;11.80;;;8.10;99.90;;;;;;5002779;28;20037;-65
2022/05/06 02:07:54;;;;;;;5.78;5.05;;;8.10;99.90;;;;;;5001442;28;20436;-64
2022/05/06 02:10:22;;;;;;;16.08;11.75;;;8.10;99.90;;;;;;5004005;28;20065;-65
2022/05/06 02:12:48;;;;;;;18.13;11.80;;;8.10;99.90;;;;;;4979836;28;21783;-65
2022/05/06 02:15:15;;;;;;;13.60;9.98;;;8.10;99.90;;;;;;4982857;28;20050;-65
2022/05/06 02:17:41;;;;;;;12.65;9.27;;;8.00;99.90;;;;;;4984187;28;20135;-64
2022/05/06 02:20:08;;;;;;;10.45;8.18;;;8.00;99.90;;;;;;5002937;28;20168;-65
2022/05/06 02:22:35;;;;;;;14.50;10.85;;;8.10;99.90;;;;;;5001706;28;20042;-65
2022/05/06 02:25:02;;;;;;;24.05;16.40;;;8.00;99.90;;;;;;4978235;28;20046;-65
2022/05/06 02:27:28;;;;;;;9.80;8.80;;;8.00;99.90;;;;;;5002316;28;20034;-65
2022/05/06 02:35:21;;;;;;;18.35;9.18;;;7.90;99.90;;;;;;4984544;28;20050;-65
2022/05/06 02:37:47;;;;;;;15.57;9.80;;;7.90;99.90;;;;;;4999824;28;20038;-65
2022/05/06 02:40:13;;;;;;;16.30;11.20;;;7.90;99.90;;;;;;5000941;28;20046;-64
2022/05/06 02:42:39;;;;;;;19.05;12.00;;;7.90;99.90;;;;;;5000232;28;20141;-64
2022/05/06 02:45:05;;;;;;;11.10;6.53;;;7.90;99.90;;;;;;4999899;28;20050;-64
2022/05/06 02:47:31;;;;;;;9.27;7.05;;;7.80;99.90;;;;;;5003584;28;20030;-64
2022/05/06 02:49:56;;;;;;;12.65;9.93;;;7.80;99.90;;;;;;4985010;28;20112;-64
2022/05/06 02:52:23;;;;;;;14.15;10.05;;;7.80;99.90;;;;;;4983854;28;20752;-64
2022/05/06 02:54:48;;;;;;;16.38;11.38;;;7.70;99.90;;;;;;4978889;28;20600;-64
2022/05/06 02:57:14;;;;;;;13.02;10.23;;;7.80;99.90;;;;;;4981443;28;20141;-64
2022/05/06 02:59:40;;;;;;;14.52;10.50;;;7.70;99.90;;;;;;4983899;28;20160;-64
2022/05/06 03:02:06;;;;;;;12.20;9.85;;;7.80;99.90;;;;;;4981792;28;20054;-64
2022/05/06 03:04:32;;;;;;;12.30;10.95;;;7.70;99.90;;;;;;4982621;28;20034;-64
2022/05/06 03:06:58;;;;;;;9.18;8.18;;;7.70;99.90;;;;;;4980765;28;20042;-64
2022/05/06 03:09:24;;;;;;;10.50;8.05;;;7.70;99.90;;;;;;4984148;28;20076;-64
2022/05/06 03:11:50;;;;;;;13.65;7.68;;;7.70;99.90;;;;;;4998465;28;20042;-64
2022/05/06 03:14:15;;;;;;;10.48;7.07;;;7.60;99.90;;;;;;5002485;28;20046;-64
2022/05/06 03:16:41;;;;;;;9.73;7.28;;;7.70;99.90;;;;;;4999754;28;20030;-64
2022/05/06 03:19:06;;;;;;;12.13;8.90;;;7.70;99.90;;;;;;4998049;28;20041;-64
2022/05/06 03:21:32;;;;;;;10.85;7.32;;;7.60;99.90;;;;;;4986800;28;20033;-64
2022/05/06 03:23:59;;;;;;;16.00;8.88;;;7.60;99.90;;;;;;4982343;28;20042;-64
2022/05/06 03:26:25;;;;;;;12.75;9.15;;;7.60;99.90;;;;;;4984045;28;20042;-64
2022/05/06 03:28:57;;;;;;;8.80;7.35;;;7.60;99.90;;;;;;4985825;28;20042;-64
2022/05/06 03:31:23;;;;;;;9.82;7.20;;;7.60;99.90;;;;;;4989597;28;20128;-64
2022/05/06 03:33:49;;;;;;;10.32;7.30;;;7.50;99.90;;;;;;4989878;28;20484;-64
2022/05/06 03:36:15;;;;;;;10.38;8.25;;;7.60;99.90;;;;;;4987469;28;20062;-64
2022/05/06 03:38:41;;;;;;;22.20;15.32;;;7.50;99.90;;;;;;4983063;28;20060;-64
2022/05/06 03:41:06;;;;;;;13.05;8.07;;;7.50;99.90;;;;;;4987584;28;20038;-64
2022/05/06 03:43:32;;;;;;;14.70;9.77;;;7.50;99.90;;;;;;4987928;28;20048;-64
2022/05/06 03:45:57;;;;;;;12.73;9.43;;;7.40;99.90;;;;;;4987912;28;20073;-64
2022/05/06 03:48:24;;;;;;;19.23;15.25;;;7.40;99.90;;;;;;4985980;28;20120;-64
2022/05/06 03:53:38;;;;;;;34.15;22.58;;;7.50;99.90;;;;;;5005085;28;20388;-64
2022/05/06 03:56:05;;;;;;;30.65;21.27;;;7.50;99.90;;;;;;5005127;28;20034;-64
2022/05/06 03:58:32;;;;;;;18.25;14.20;;;7.40;99.90;;;;;;5002323;28;20038;-64
2022/05/06 04:00:58;;;;;;;18.92;11.68;;;7.40;99.90;;;;;;4986734;28;20554;-64
2022/05/06 04:03:24;;;;;;;14.25;11.15;;;7.40;99.90;;;;;;4987259;28;20038;-64
2022/05/06 04:05:50;;;;;;;25.15;16.35;;;7.40;99.90;;;;;;5006623;28;20045;-64
2022/05/06 04:08:15;;;;;;;28.88;13.65;;;7.40;99.90;;;;;;4987417;28;20654;-64
2022/05/06 04:10:41;;;;;;;21.70;15.43;;;7.40;99.90;;;;;;4986759;28;20046;-64
2022/05/06 04:13:07;;;;;;;25.38;18.10;;;7.40;99.90;;;;;;4986907;28;20114;-64
2022/05/06 04:15:33;;;;;;;32.05;19.88;;;7.50;99.90;;;;;;4985256;28;20044;-64
2022/05/06 04:18:00;;;;;;;30.48;19.70;;;7.40;99.90;;;;;;5003052;28;20396;-64
2022/05/06 04:25:55;;;;;;;44.85;23.85;;;7.60;99.90;;;;;;5003487;28;20129;-64
2022/05/06 04:28:21;;;;;;;104.05;31.40;;;7.50;99.90;;;;;;5004260;28;20566;-64
2022/05/06 04:30:47;;;;;;;168.23;32.28;;;7.60;99.90;;;;;;5004125;28;20068;-64
2022/05/06 04:33:12;;;;;;;162.10;34.67;;;7.50;99.90;;;;;;4986596;28;21014;-64
2022/05/06 04:35:39;;;;;;;252.73;33.15;;;7.60;99.90;;;;;;4985009;28;20093;-64
2022/05/06 04:38:05;;;;;;;256.45;32.85;;;7.70;99.90;;;;;;5002427;28;20098;-64
2022/05/06 04:40:30;;;;;;;337.45;31.38;;;7.60;99.90;;;;;;4982960;28;20503;-64
2022/05/06 04:42:56;;;;;;;237.85;29.23;;;7.70;99.90;;;;;;5004008;28;20471;-64
2022/05/06 04:45:22;;;;;;;305.30;32.78;;;7.70;99.90;;;;;;5005057;28;20157;-64
2022/05/06 04:47:47;;;;;;;414.45;40.20;;;7.70;99.90;;;;;;4988224;28;20532;-64
2022/05/06 04:50:13;;;;;;;195.48;32.67;;;7.70;99.90;;;;;;5004451;28;20065;-64
2022/05/06 04:52:38;;;;;;;141.50;30.48;;;7.80;99.90;;;;;;4983776;28;20042;-64
2022/05/06 04:55:04;;;;;;;252.07;33.25;;;7.80;99.90;;;;;;4987717;28;20125;-64
2022/05/06 04:57:30;;;;;;;235.40;32.40;;;7.90;99.90;;;;;;4985154;28;20068;-63
2022/05/06 04:59:55;;;;;;;218.10;34.33;;;8.00;99.90;;;;;;5004064;28;20866;-64
2022/05/06 05:02:21;;;;;;;264.92;33.05;;;8.00;99.90;;;;;;5002580;28;20042;-64
2022/05/06 05:04:52;;;;;;;210.13;35.35;;;8.10;99.90;;;;;;4986942;28;20669;-64
2022/05/06 05:07:17;;;;;;;183.88;32.85;;;8.20;99.90;;;;;;4987286;28;20089;-64
2022/05/06 05:09:44;;;;;;;199.95;31.88;;;8.30;99.90;;;;;;4985188;28;20488;-64
2022/05/06 05:12:09;;;;;;;141.40;29.90;;;8.40;99.90;;;;;;5002704;28;20052;-64
2022/05/06 05:14:35;;;;;;;142.75;31.55;;;8.50;99.90;;;;;;4984265;28;20049;-64
2022/05/06 05:17:01;;;;;;;146.13;33.05;;;8.60;99.90;;;;;;4984600;28;20111;-64
2022/05/06 05:19:39;;;;;;;95.43;30.13;;;8.60;99.90;;;;;;4987878;28;20516;-64
2022/05/06 05:22:05;;;;;;;164.82;30.00;;;8.80;99.90;;;;;;5000707;28;21035;-64
2022/05/06 05:24:30;;;;;;;76.97;26.92;;;8.90;99.90;;;;;;4985529;28;20041;-64
2022/05/06 05:26:57;;;;;;;77.53;25.13;;;8.90;99.90;;;;;;4986775;28;20573;-64
2022/05/06 05:29:23;;;;;;;69.32;25.33;;;9.00;99.90;;;;;;5001421;28;20412;-64
2022/05/06 05:31:53;;;;;;;51.15;23.55;;;9.10;99.90;;;;;;4981922;28;20100;-64
2022/05/06 05:34:18;;;;;;;92.68;22.95;;;9.20;99.90;;;;;;4984542;28;20041;-64
2022/05/06 05:36:45;;;;;;;82.60;23.08;;;9.30;99.90;;;;;;4983415;28;20042;-64
2022/05/06 05:39:11;;;;;;;43.55;22.02;;;9.40;99.90;;;;;;4980708;28;20053;-64
2022/05/06 05:41:38;;;;;;;153.38;23.38;;;9.50;99.90;;;;;;5002250;28;20137;-64
2022/05/06 05:49:32;;;;;;;32.00;19.90;;;9.70;99.90;;;;;;4990719;28;20042;-64
2022/05/06 05:51:58;;;;;;;57.90;19.15;;;9.80;99.90;;;;;;4971347;28;20046;-65
2022/05/06 05:54:24;;;;;;;29.25;18.33;;;9.90;99.90;;;;;;5004704;28;20416;-64
2022/05/06 05:56:50;;;;;;;47.88;20.52;;;10.00;99.90;;;;;;4989563;28;20081;-64
2022/05/06 05:59:15;;;;;;;28.30;19.02;;;10.10;99.90;;;;;;4999052;28;20038;-64
2022/05/06 06:01:41;;;;;;;93.13;21.00;;;10.20;99.90;;;;;;4970785;28;20038;-64
2022/05/06 06:04:07;;;;;;;57.17;20.00;;;10.20;99.90;;;;;;4993151;28;20047;-64
2022/05/06 06:06:32;;;;;;;47.42;21.20;;;10.30;99.90;;;;;;4972247;28;20420;-64
2022/05/06 06:08:58;;;;;;;35.45;22.58;;;10.30;99.90;;;;;;4993881;28;20631;-64
2022/05/06 06:11:24;;;;;;;61.05;21.95;;;10.40;99.90;;;;;;4993871;28;20037;-64
2022/05/06 06:13:49;;;;;;;56.03;21.52;;;10.40;99.90;;;;;;4957446;28;22365;-64
2022/05/06 06:16:17;;;;;;;99.85;26.05;;;10.50;99.90;;;;;;4991386;28;20417;-64
2022/05/06 06:18:42;;;;;;;37.47;22.27;;;10.60;99.90;;;;;;4973757;28;21721;-64
2022/05/06 06:21:08;;;;;;;45.97;22.27;;;10.70;99.90;;;;;;4991970;28;20042;-64
2022/05/06 06:23:34;;;;;;;63.35;26.45;;;10.70;99.90;;;;;;4972443;28;20050;-65
2022/05/06 06:25:59;;;;;;;39.42;26.50;;;10.80;99.90;;;;;;4990419;28;20125;-64
2022/05/06 06:28:25;;;;;;;53.83;28.05;;;10.80;99.90;;;;;;4972899;28;20045;-64
2022/05/06 06:30:51;;;;;;;61.25;27.98;;;10.90;99.90;;;;;;4972793;28;20054;-65
2022/05/06 06:33:17;;;;;;;40.38;26.33;;;10.90;99.90;;;;;;4990454;28;20052;-65
2022/05/06 06:35:42;;;;;;;66.03;29.80;;;11.00;99.90;;;;;;4971886;28;22120;-64
2022/05/06 06:38:08;;;;;;;51.10;30.25;;;11.00;99.90;;;;;;4990025;28;21726;-65
2022/05/06 06:40:34;;;;;;;45.65;30.60;;;11.10;99.90;;;;;;4972663;28;20188;-64
2022/05/06 06:43:04;;;;;;;60.65;31.67;;;11.20;99.90;;;;;;4990017;28;20029;-64
2022/05/06 06:45:30;;;;;;;51.45;30.15;;;11.20;99.90;;;;;;4993567;28;20042;-64
2022/05/06 06:47:57;;;;;;;61.92;30.77;;;11.30;99.90;;;;;;4969725;28;20076;-65
2022/05/06 06:50:24;;;;;;;51.47;31.42;;;11.30;99.90;;;;;;4985896;28;20038;-64
2022/05/06 06:52:50;;;;;;;47.60;29.17;;;11.40;99.90;;;;;;4990680;28;20042;-65
2022/05/06 06:55:16;;;;;;;46.55;31.60;;;11.40;99.90;;;;;;4993325;28;20029;-64
2022/05/06 06:57:41;;;;;;;42.67;29.92;;;11.50;99.90;;;;;;4989255;28;20042;-65
2022/05/06 07:00:08;;;;;;;48.28;27.83;;;11.50;99.90;;;;;;4990089;28;20041;-65
2022/05/06 07:02:36;;;;;;;40.90;26.33;;;11.60;99.90;;;;;;4967981;28;20077;-65
2022/05/06 07:05:02;;;;;;;40.95;27.48;;;11.70;99.90;;;;;;4993688;28;20042;-65
2022/05/06 07:12:57;;;;;;;32.97;23.08;;;12.00;99.90;;;;;;4993615;28;20050;-64
2022/05/06 07:15:23;;;;;;;31.35;23.48;;;12.00;99.90;;;;;;4974024;28;20369;-64
2022/05/06 07:17:49;;;;;;;36.05;24.15;;;12.10;99.90;;;;;;4982500;28;20038;-65
2022/05/06 07:20:14;;;;;;;35.65;24.13;;;12.20;99.90;;;;;;4976566;28;20046;-65
2022/05/06 07:22:41;;;;;;;30.95;23.10;;;12.30;99.90;;;;;;4956800;28;20069;-65
2022/05/06 07:25:08;;;;;;;29.98;21.58;;;12.40;99.90;;;;;;4993156;28;20046;-65
2022/05/06 07:27:35;;;;;;;29.45;21.48;;;12.50;99.90;;;;;;4986216;28;20046;-65
2022/05/06 07:30:01;;;;;;;30.52;22.55;;;12.60;99.90;;;;;;4996397;28;20046;-65
2022/05/06 07:32:27;;;;;;;31.63;22.88;;;12.60;99.90;;;;;;5003539;28;20046;-65
2022/05/06 07:34:52;;;;;;;29.13;21.20;;;12.70;99.90;;;;;;4978627;28;20042;-65
2022/05/06 07:37:18;;;;;;;30.55;21.90;;;12.90;99.90;;;;;;4978680;28;20153;-65
2022/05/06 07:39:44;;;;;;;28.00;21.27;;;12.90;99.90;;;;;;4991985;28;20071;-65
2022/05/06 07:42:11;;;;;;;31.63;21.13;;;12.90;99.90;;;;;;4984523;28;20050;-65
2022/05/06 07:44:37;;;;;;;29.92;22.80;;;13.00;99.90;;;;;;4982614;28;20042;-65
2022/05/06 07:47:03;;;;;;;24.83;19.38;;;13.10;99.90;;;;;;5005811;28;20030;-65
2022/05/06 07:49:29;;;;;;;22.90;18.08;;;13.20;99.90;;;;;;4982692;28;20049;-65
2022/05/06 07:51:54;;;;;;;26.33;20.90;;;13.40;99.90;;;;;;5000743;28;20053;-64
2022/05/06 07:54:20;;;;;;;26.17;18.42;;;13.40;99.90;;;;;;5000330;28;20037;-65
2022/05/06 07:56:45;;;;;;;23.08;17.63;;;13.40;99.90;;;;;;4980403;28;20054;-65
2022/05/06 07:59:11;;;;;;;27.85;18.67;;;13.50;99.90;;;;;;4987472;28;20045;-65
2022/05/06 08:04:36;;;;;;;20.13;16.20;;;13.70;99.90;;;;;;4992206;28;20046;-65
2022/05/06 08:07:03;;;;;;;19.98;16.08;;;13.80;99.90;;;;;;4992905;28;20057;-65
2022/05/06 08:09:29;;;;;;;18.83;15.85;;;13.90;99.90;;;;;;4994033;28;20824;-65
2022/05/06 08:11:55;;;;;;;14.80;13.20;;;14.00;99.90;;;;;;4993065;28;20117;-65
2022/05/06 08:14:20;;;;;;;17.75;13.73;;;14.00;99.90;;;;;;5002442;28;20034;-66
2022/05/06 08:16:47;;;;;;;16.15;12.98;;;14.10;99.90;;;;;;4988623;28;20046;-65
2022/05/06 08:19:14;;;;;;;17.48;13.88;;;14.20;99.90;;;;;;5006986;28;20911;-65
2022/05/06 08:21:39;;;;;;;15.68;11.90;;;14.20;99.90;;;;;;4991225;28;20396;-65
2022/05/06 08:24:05;;;;;;;12.93;11.52;;;14.20;99.90;;;;;;4986937;28;20041;-65
2022/05/06 08:26:31;;;;;;;11.20;9.90;;;14.20;99.90;;;;;;5008078;28;20052;-64
2022/05/06 08:28:57;;;;;;;11.93;9.88;;;14.50;99.90;;;;;;5006210;28;20049;-64
2022/05/06 08:31:23;;;;;;;11.25;10.15;;;14.50;99.90;;;;;;4992762;28;20772;-65
2022/05/06 08:33:48;;;;;;;9.82;8.55;;;14.60;99.90;;;;;;5004235;28;20989;-65
2022/05/06 08:36:14;;;;;;;14.60;9.48;;;14.80;99.90;;;;;;4990240;28;20044;-64
2022/05/06 08:38:40;;;;;;;9.40;8.25;;;15.20;99.90;;;;;;5002319;28;20511;-64
2022/05/06 08:41:05;;;;;;;9.88;7.85;;;15.50;99.90;;;;;;4984713;28;20058;-64
2022/05/06 08:43:32;;;;;;;8.25;7.55;;;15.90;99.90;;;;;;5005639;28;20140;-65
2022/05/06 08:51:33;;;;;;;7.75;6.97;;;17.20;99.90;;;;;;4989242;28;20144;-65
2022/05/06 08:53:59;;;;;;;7.47;6.70;;;17.50;99.90;;;;;;4988533;28;20043;-65
2022/05/06 08:56:25;;;;;;;9.45;7.85;;;17.70;99.90;;;;;;4989875;28;20107;-65
2022/05/06 08:58:51;;;;;;;8.57;7.05;;;17.80;99.90;;;;;;4989767;28;20034;-65
2022/05/06 09:01:21;;;;;;;11.07;6.75;;;17.80;99.90;;;;;;4990415;28;20511;-65
2022/05/06 09:03:48;;;;;;;7.45;6.72;;;17.90;99.90;;;;;;5005939;28;20124;-65
2022/05/06 09:06:18;;;;;;;7.75;7.05;;;17.90;99.90;;;;;;4989549;28;20040;-65
2022/05/06 09:08:44;;;;;;;8.13;7.35;;;18.00;99.90;;;;;;4989876;28;20430;-65
2022/05/06 09:11:11;;;;;;;8.02;7.22;;;18.10;99.90;;;;;;4990245;28;20037;-65
2022/05/06 09:13:38;;;;;;;7.18;6.57;;;18.10;99.90;;;;;;4989672;28;20052;-65
2022/05/06 09:16:46;;;;;;;9.15;7.88;;;18.30;99.90;;;;;;5005924;28;20120;-65
2022/05/06 09:19:22;;;;;;;11.45;7.85;;;18.50;99.90;;;;;;4942445;28;20045;-65
2022/05/06 09:22:14;;;;;;;8.30;7.50;;;18.60;99.90;;;;;;4988022;28;20053;-65
2022/05/06 09:24:42;;;;;;;7.63;6.82;;;18.60;99.90;;;;;;5004046;28;20731;-65
2022/05/06 09:27:08;;;;;;;8.50;7.68;;;18.70;99.90;;;;;;4990114;28;20128;-65
2022/05/06 09:29:51;;;;;;;8.20;7.40;;;18.80;99.90;;;;;;4991729;28;20177;-65
2022/05/06 09:32:28;;;;;;;12.25;8.00;;;19.00;99.90;;;;;;5005641;28;20116;-65
2022/05/06 09:34:58;;;;;;;8.30;7.50;;;18.90;99.90;;;;;;4990009;28;20081;-65
2022/05/06 09:37:46;;;;;;;6.07;5.55;;;19.00;99.90;;;;;;5006934;28;20087;-65
2022/05/06 09:40:12;;;;;;;5.95;5.45;;;19.00;99.90;;;;;;4988196;28;20045;-65
2022/05/06 09:42:44;;;;;;;8.82;6.70;;;19.00;99.90;;;;;;5004809;28;20381;-65
2022/05/06 09:45:11;;;;;;;10.02;7.95;;;19.10;99.90;;;;;;5004705;28;20108;-65
2022/05/06 09:47:38;;;;;;;10.25;7.82;;;19.10;99.90;;;;;;5005563;28;20485;-65
2022/05/06 09:50:05;;;;;;;7.32;6.07;;;19.20;99.90;;;;;;5006987;28;20045;-65
2022/05/06 09:52:31;;;;;;;6.78;6.07;;;19.30;99.90;;;;;;5005593;28;20890;-65
2022/05/06 09:54:57;;;;;;;8.65;5.47;;;19.40;99.90;;;;;;5003661;28;20034;-65
2022/05/06 09:57:23;;;;;;;6.85;5.97;;;19.60;99.90;;;;;;4987673;28;20034;-65
2022/05/06 09:59:50;;;;;;;6.38;5.32;;;19.90;99.90;;;;;;4984362;28;20038;-65
2022/05/06 10:02:17;;;;;;;7.63;4.68;;;20.10;99.90;;;;;;5008068;28;20099;-65
2022/05/06 10:04:43;;;;;;;5.55;3.90;;;20.30;99.90;;;;;;5005691;28;20045;-65
2022/05/06 10:07:14;;;;;;;4.95;4.30;;;20.50;99.90;;;;;;4988853;28;20400;-65
2022/05/06 10:09:58;;;;;;;4.93;4.53;;;20.70;99.90;;;;;;5003771;28;20068;-65
2022/05/06 10:12:27;;;;;;;5.90;4.95;;;20.80;99.90;;;;;;5004104;28;20041;-65
2022/05/06 10:14:54;;;;;;;5.72;3.65;;;21.10;99.90;;;;;;5005006;28;20060;-65
2022/05/06 10:17:57;;;;;;;6.95;4.78;;;21.20;99.90;;;;;;5004590;28;20481;-65
2022/05/06 10:20:38;;;;;;;4.50;3.00;;;21.40;99.50;;;;;;4988042;28;20125;-65
2022/05/06 10:23:12;;;;;;;9.85;2.88;;;21.40;96.80;;;;;;5004797;28;20048;-65
2022/05/06 10:25:40;;;;;;;5.15;3.20;;;21.50;98.30;;;;;;4988803;28;20116;-65
2022/05/06 10:34:23;;;;;;;8.05;3.67;;;21.60;94.30;;;;;;4965878;28;20492;-65
2022/05/06 10:36:53;;;;;;;5.82;3.85;;;21.60;93.70;;;;;;4972958;28;20124;-65
2022/05/06 10:39:33;;;;;;;3.25;2.83;;;21.50;95.00;;;;;;5004897;28;20033;-65
2022/05/06 10:42:01;;;;;;;3.50;2.08;;;21.40;94.10;;;;;;4989783;28;20141;-65
2022/05/06 10:44:34;;;;;;;6.05;2.47;;;21.60;95.00;;;;;;4987134;28;20037;-65
2022/05/06 10:47:00;;;;;;;10.30;2.67;;;21.80;96.10;;;;;;4988141;28;20053;-65
2022/05/06 10:49:34;;;;;;;6.13;3.75;;;21.90;94.00;;;;;;5004659;28;20037;-65
2022/05/06 10:52:28;;;;;;;8.57;3.67;;;22.10;94.40;;;;;;5001355;28;20049;-66
2022/05/06 10:54:58;;;;;;;6.65;3.90;;;22.10;92.80;;;;;;5002508;28;20057;-65
2022/05/06 10:57:25;;;;;;;11.80;3.80;;;22.00;91.20;;;;;;5003807;28;20072;-65
2022/05/06 10:59:57;;;;;;;5.22;3.67;;;22.00;90.90;;;;;;4987674;28;20037;-65
2022/05/06 11:02:31;;;;;;;7.15;3.00;;;22.00;89.70;;;;;;5004720;28;20699;-65
2022/05/06 11:05:08;;;;;;;3.70;3.40;;;22.00;92.80;;;;;;4985856;28;20140;-65
2022/05/06 11:07:36;;;;;;;3.30;3.00;;;22.00;90.60;;;;;;5004307;28;20026;-65
2022/05/06 11:10:12;;;;;;;5.97;3.13;;;22.00;85.90;;;;;;4988228;28;20049;-65
2022/05/06 11:12:39;;;;;;;6.50;3.05;;;22.20;85.00;;;;;;4988492;28;20058;-65
2022/05/06 11:15:06;;;;;;;6.25;2.30;;;22.20;88.70;;;;;;5004226;28;20042;-65
2022/05/06 11:17:33;;;;;;;3.25;2.90;;;22.30;85.50;;;;;;4988143;28;20049;-65
2022/05/06 11:19:59;;;;;;;3.17;2.88;;;22.40;79.10;;;;;;5000398;28;20042;-65
2022/05/06 11:22:25;;;;;;;4.28;1.70;;;22.40;76.30;;;;;;4986643;28;20045;-65
2022/05/06 11:24:58;;;;;;;3.88;1.20;;;22.30;73.70;;;;;;5005321;28;20033;-65
2022/05/06 11:27:24;;;;;;;4.53;2.47;;;22.30;76.10;;;;;;5007383;28;20030;-65
2022/05/06 11:29:59;;;;;;;5.93;2.45;;;22.30;77.50;;;;;;5005653;28;20042;-65
2022/05/06 11:32:27;;;;;;;11.00;2.53;;;22.40;75.70;;;;;;4985288;28;20046;-65
2022/05/06 11:35:01;;;;;;;3.15;2.00;;;22.50;82.10;;;;;;5004103;28;20056;-65
2022/05/06 11:37:33;;;;;;;4.78;2.70;;;22.60;81.40;;;;;;4988911;28;20126;-65
2022/05/06 11:42:44;;;;;;;2.90;1.87;;;22.70;81.80;;;;;;4986224;28;20049;-65
2022/05/06 11:48:07;;;;;;;16.25;2.25;;;22.90;80.90;;;;;;4988208;28;20053;-64
2022/05/06 11:50:33;;;;;;;8.07;1.10;;;23.10;75.10;;;;;;4990004;28;20084;-64
2022/05/06 11:53:01;;;;;;;4.60;0.65;;;23.20;80.70;;;;;;4990383;28;21977;-65
2022/05/06 11:55:28;;;;;;;3.85;0.57;;;23.20;81.70;;;;;;4990437;28;20034;-64
2022/05/06 11:57:56;;;;;;;6.65;0.70;;;23.30;68.60;;;;;;5007157;28;20424;-64
2022/05/06 12:00:21;;;;;;;3.25;0.70;;;23.30;72.50;;;;;;4991386;28;20676;-64
2022/05/06 12:02:48;;;;;;;1.23;0.60;;;23.30;72.20;;;;;;5008788;28;20042;-64
2022/05/06 12:05:15;;;;;;;1.25;0.45;;;23.40;72.10;;;;;;4990761;28;20117;-64
2022/05/06 12:07:45;;;;;;;1.48;0.50;;;23.50;74.30;;;;;;5009009;28;20096;-64
2022/05/06 12:10:22;;;;;;;2.15;0.70;;;23.50;71.70;;;;;;5004060;28;20579;-64
2022/05/06 12:12:54;;;;;;;1.25;0.60;;;23.50;69.40;;;;;;4991413;28;20096;-64
2022/05/06 12:15:31;;;;;;;1.85;0.60;;;23.50;70.00;;;;;;5008166;28;20046;-65
2022/05/06 12:18:09;;;;;;;4.50;0.80;;;23.60;74.40;;;;;;5009451;28;20050;-64
2022/05/06 12:20:42;;;;;;;2.35;0.98;;;23.70;78.60;;;;;;5007008;28;20045;-64
2022/05/06 12:23:09;;;;;;;3.67;1.05;;;23.70;80.30;;;;;;4992061;28;20065;-64
2022/05/06 12:25:36;;;;;;;4.00;1.10;;;23.70;78.70;;;;;;4989149;28;20100;-65
2022/05/06 12:28:16;;;;;;;2.63;1.38;;;23.70;72.10;;;;;;5008345;28;20049;-65
2022/05/06 12:30:44;;;;;;;4.47;1.30;;;23.70;77.20;;;;;;5004119;28;20113;-65
2022/05/06 12:33:17;;;;;;;11.05;1.52;;;23.50;77.80;;;;;;4988167;28;20463;-65
2022/05/06 12:36:00;;;;;;;4.05;1.35;;;23.40;74.50;;;;;;4987670;28;20048;-65
2022/05/06 12:38:48;;;;;;;4.93;1.70;;;23.40;70.10;;;;;;5009238;28;20045;-65
2022/05/06 12:41:21;;;;;;;21.25;3.28;;;23.50;73.30;;;;;;5005347;28;20053;-65
2022/05/06 12:43:50;;;;;;;6.45;1.67;;;23.50;69.00;;;;;;4985931;28;20057;-65
2022/05/06 12:46:30;;;;;;;5.28;1.13;;;23.40;72.80;;;;;;4991627;28;20097;-65
2022/05/06 12:51:44;;;;;;;4.65;1.45;;;23.50;71.30;;;;;;4990158;28;20066;-65
2022/05/06 12:54:10;;;;;;;3.67;0.88;;;23.50;77.60;;;;;;5006170;28;20038;-65
2022/05/06 12:56:36;;;;;;;3.88;0.60;;;23.30;82.30;;;;;;4988493;28;20088;-65
2022/05/06 12:59:02;;;;;;;1.50;0.90;;;23.30;85.20;;;;;;5008344;28;20100;-65
2022/05/06 13:01:28;;;;;;;2.67;0.82;;;23.50;75.20;;;;;;5006645;28;20042;-65
2022/05/06 13:03:54;;;;;;;2.78;1.05;;;23.50;78.90;;;;;;5008570;28;20037;-65
2022/05/06 13:06:20;;;;;;;4.72;1.02;;;23.60;80.90;;;;;;4991164;28;20038;-65
2022/05/06 13:08:45;;;;;;;2.58;0.85;;;23.80;82.80;;;;;;4988790;28;20571;-65
2022/05/06 13:11:11;;;;;;;2.90;0.98;;;23.90;81.40;;;;;;5005510;28;20049;-65
2022/05/06 13:13:37;;;;;;;4.78;0.93;;;23.90;79.00;;;;;;4988167;28;20120;-65
2022/05/06 13:16:02;;;;;;;4.88;1.20;;;23.80;79.40;;;;;;5004986;28;20045;-65
2022/05/06 13:18:30;;;;;;;3.22;1.20;;;23.80;80.80;;;;;;5005094;28;20050;-65
2022/05/06 13:20:55;;;;;;;6.47;1.90;;;23.80;80.10;;;;;;4986955;28;20072;-65
2022/05/06 13:23:21;;;;;;;6.70;1.67;;;24.00;81.70;;;;;;5005570;28;20037;-65
2022/05/06 13:25:47;;;;;;;2.72;1.70;;;24.20;80.60;;;;;;4986221;28;20045;-65
2022/05/06 13:28:13;;;;;;;2.08;1.23;;;24.30;78.30;;;;;;5005893;28;20044;-65
2022/05/06 13:30:39;;;;;;;7.68;1.92;;;24.40;77.50;;;;;;4987818;28;20042;-65
2022/05/06 13:33:04;;;;;;;12.20;1.95;;;24.50;79.00;;;;;;4988686;28;20054;-65